createdAt,value
2017-10-14T19:33:05.143Z,81.2
2017-10-14T19:34:03.910Z,81.6
2017-10-14T19:35:03.247Z,81.3
2017-10-14T19:36:02.593Z,81.7
2017-10-14T19:37:01.829Z,81.4
2017-10-14T19:38:01.448Z,82
2017-10-14T19:39:00.412Z,81.8
2017-10-14T19:39:59.749Z,82
2017-10-14T19:40:59.078Z,82.2
2017-10-14T19:41:58.540Z,82.2
2017-10-14T19:42:58.016Z,82.3
2017-10-14T19:43:56.725Z,82.3
2017-10-14T19:44:56.454Z,82
2017-10-14T19:45:55.442Z,82.2
2017-10-14T19:46:54.792Z,82.1
2017-10-14T19:47:54.057Z,82.5
2017-10-14T19:48:53.673Z,82.4
2017-10-14T19:49:52.530Z,82.4
2017-10-14T19:50:52.014Z,82.5
2017-10-14T19:51:50.978Z,82.6
2017-10-14T19:52:50.816Z,82.6
2017-10-14T19:53:49.648Z,82.5
2017-10-14T19:54:49.223Z,82.4
2017-10-14T19:55:48.561Z,83
2017-10-14T19:56:47.524Z,83.2
2017-10-14T19:57:46.854Z,83.2
2017-10-14T19:58:46.190Z,83.1
2017-10-14T19:59:45.529Z,83.1
2017-10-14T20:00:44.880Z,83.2
2017-10-14T20:01:44.351Z,83.1
2017-10-14T20:02:43.199Z,83.2
2017-10-14T20:03:42.919Z,83.3
2017-10-14T20:04:41.773Z,83.2
2017-10-14T20:05:41.102Z,83.2
2017-10-14T20:06:40.439Z,83.4
2017-10-14T20:07:39.650Z,83.7
2017-10-14T20:08:38.995Z,83.7
2017-10-14T20:09:38.329Z,83.9
2017-10-14T20:10:37.533Z,83.9
2017-10-14T20:11:08.053Z,83.9
2017-10-14T20:12:36.217Z,83.8
2017-10-14T20:13:35.681Z,83.8
2017-10-14T20:14:34.881Z,83.7
2017-10-14T20:17:32.235Z,84.2
2017-10-14T20:19:31.101Z,84.4
2017-10-14T20:20:30.430Z,84.2
2017-10-14T20:22:28.644Z,84.5
2017-10-14T20:23:28.084Z,84.5
2017-10-14T20:24:27.532Z,84.4
2017-10-14T20:25:26.745Z,84.3
2017-10-14T20:26:25.681Z,84.8
2017-10-14T20:27:25.395Z,84.6
2017-10-14T20:28:24.478Z,84.6
2017-10-14T20:29:23.931Z,84.7
2017-10-14T20:31:22.035Z,84.6
2017-10-14T20:33:20.884Z,84.6
2017-10-14T20:34:20.086Z,84.7
2017-10-14T20:35:19.179Z,84.6
2017-10-14T20:36:18.510Z,84.8
2017-10-14T20:37:17.968Z,84.5
2017-10-14T20:40:15.576Z,84.7
2017-10-14T20:41:14.773Z,84.7
2017-10-14T20:42:14.115Z,85
2017-10-14T20:43:13.591Z,85
2017-10-14T20:44:13.073Z,85.1
2017-10-14T20:45:12.172Z,85.4
2017-10-14T20:46:11.503Z,85.3
2017-10-14T20:47:10.839Z,85.4
2017-10-14T20:48:09.688Z,85.5
2017-10-14T20:49:09.023Z,85.5
2017-10-14T20:50:08.593Z,85.6
2017-10-14T20:51:07.795Z,85.7
2017-10-14T20:52:06.768Z,85.7
2017-10-14T20:54:05.262Z,86.1
2017-10-14T20:55:04.964Z,86
2017-10-14T20:56:04.067Z,86
2017-10-14T20:57:03.546Z,86
2017-10-14T20:58:02.394Z,86
2017-10-14T20:59:01.509Z,86.2
2017-10-14T21:00:01.219Z,86.3
2017-10-14T21:01:00.065Z,86.3
2017-10-14T21:01:30.711Z,86.3
2017-10-14T21:02:01.352Z,86.3
2017-10-14T21:02:31.993Z,86.3
2017-10-14T21:03:02.646Z,86.5
2017-10-14T21:03:33.045Z,86.5
2017-10-14T21:04:57.683Z,86.5
2017-10-14T21:05:56.664Z,86.7
2017-10-14T21:07:55.038Z,86.6
2017-10-14T21:08:54.366Z,86.9
2017-10-14T21:09:53.968Z,86.9
2017-10-14T21:10:52.669Z,87
2017-10-14T21:11:52.513Z,86.9
2017-10-14T21:12:51.725Z,87.1
2017-10-14T21:13:50.566Z,87
2017-10-14T21:15:49.424Z,87.2
2017-10-14T21:16:48.632Z,87.4
2017-10-14T21:17:47.837Z,87.3
2017-10-14T21:18:47.173Z,87.5
2017-10-14T21:19:46.006Z,87.4
2017-10-14T21:20:45.344Z,87.3
2017-10-14T21:21:44.690Z,87.5
2017-10-14T21:22:44.022Z,87.2
2017-10-14T21:23:43.094Z,87.5
2017-10-14T21:26:41.245Z,87.2
2017-10-14T21:28:41.179Z,87.2
2017-10-14T21:29:39.141Z,87.2
2017-10-14T21:30:37.840Z,87.3
2017-10-14T21:31:37.551Z,87.2
2017-10-14T21:32:36.761Z,87.4
2017-10-14T21:33:35.736Z,87.6
2017-10-14T21:34:35.435Z,87.5
2017-10-14T21:35:34.271Z,87.5
2017-10-14T21:36:33.738Z,87.6
2017-10-14T21:37:33.077Z,87.6
2017-10-14T21:39:31.165Z,87.8
2017-10-14T21:40:30.876Z,87.7
2017-10-14T21:41:30.081Z,87.8
2017-10-14T21:42:29.045Z,87.8
2017-10-14T21:43:28.388Z,87.8
2017-10-14T21:44:27.995Z,87.8
2017-10-14T21:45:27.217Z,87.9
2017-10-14T21:46:26.553Z,88
2017-10-14T21:47:25.757Z,87.9
2017-10-14T21:48:24.585Z,88
2017-10-14T21:49:24.047Z,88
2017-10-14T21:50:23.251Z,88
2017-10-14T21:51:22.601Z,88.2
2017-10-14T21:52:21.593Z,88.2
2017-10-14T21:53:21.060Z,88.2
2017-10-14T21:54:20.150Z,88.4
2017-10-14T21:55:19.770Z,88.4
2017-10-14T21:56:18.842Z,88.4
2017-10-14T21:56:49.150Z,88.4
2017-10-14T21:57:19.663Z,88.5
2017-10-14T21:58:17.248Z,88.6
2017-10-14T21:59:16.578Z,88.6
2017-10-14T22:00:15.781Z,88.6
2017-10-14T22:01:15.248Z,88.6
2017-10-14T22:02:14.574Z,88.7
2017-10-14T22:03:13.680Z,88.7
2017-10-14T22:04:12.887Z,88.7
2017-10-14T22:05:12.093Z,88.6
2017-10-14T22:06:11.308Z,88.7
2017-10-14T22:07:10.645Z,88.6
2017-10-14T22:09:09.000Z,88.7
2017-10-14T22:10:08.343Z,88.6
2017-10-14T22:11:07.459Z,88.5
2017-10-14T22:12:07.069Z,88.7
2017-10-14T22:13:05.903Z,88.7
2017-10-14T22:14:05.239Z,88.5
2017-10-14T22:15:04.589Z,88.6
2017-10-14T22:16:03.562Z,88.5
2017-10-14T22:17:02.904Z,88.7
2017-10-14T22:18:02.243Z,88.7
2017-10-14T22:19:01.470Z,88.7
2017-10-14T22:20:00.936Z,88.7
2017-10-14T22:21:00.276Z,88.6
2017-10-14T22:21:59.103Z,88.8
2017-10-14T22:22:58.569Z,88.8
2017-10-14T22:23:57.529Z,89
2017-10-14T22:24:56.857Z,88.9
2017-10-14T22:25:56.578Z,88.8
2017-10-14T22:26:55.404Z,88.8
2017-10-14T22:27:54.606Z,88.8
2017-10-14T22:28:53.935Z,89.1
2017-10-14T22:29:53.407Z,89
2017-10-14T22:30:52.238Z,89
2017-10-14T22:31:51.855Z,89.2
2017-10-14T22:32:51.199Z,89.1
2017-10-14T22:33:50.182Z,89.1
2017-10-14T22:34:49.673Z,89.1
2017-10-14T22:35:48.872Z,89.2
2017-10-14T22:36:47.834Z,89.3
2017-10-14T22:37:47.268Z,89.2
2017-10-14T22:38:46.602Z,89.3
2017-10-14T22:39:45.431Z,89.3
2017-10-14T22:40:44.902Z,89.3
2017-10-14T22:41:44.100Z,89.2
2017-10-14T22:42:43.563Z,89.3
2017-10-14T22:43:42.912Z,89.5
2017-10-14T22:44:41.877Z,89.3
2017-10-14T22:45:41.086Z,89.4
2017-10-14T22:46:40.292Z,89.3
2017-10-14T22:47:39.387Z,89.4
2017-10-14T22:48:39.089Z,89.5
2017-10-14T22:49:38.295Z,89.5
2017-10-14T22:50:37.385Z,89.4
2017-10-14T22:51:36.983Z,89.4
2017-10-14T22:52:35.681Z,89.5
2017-10-14T22:53:35.009Z,89.6
2017-10-14T22:54:34.463Z,89.6
2017-10-14T22:55:33.667Z,89.7
2017-10-14T22:56:33.140Z,89.7
2017-10-14T22:57:31.965Z,89.9
2017-10-14T22:58:31.449Z,89.8
2017-10-14T22:59:30.789Z,89.8
2017-10-14T23:00:29.886Z,89.7
2017-10-14T23:02:28.252Z,89.8
2017-10-14T23:03:27.594Z,89.6
2017-10-14T23:04:26.932Z,89.8
2017-10-14T23:05:26.046Z,89.8
2017-10-14T23:06:25.377Z,90
2017-10-14T23:07:24.448Z,89.9
2017-10-14T23:08:24.068Z,89.9
2017-10-14T23:09:22.895Z,90
2017-10-14T23:10:22.360Z,90
2017-10-14T23:11:21.699Z,90.2
2017-10-14T23:12:20.937Z,90.1
2017-10-14T23:13:20.040Z,90.1
2017-10-14T23:14:19.248Z,90.2
2017-10-14T23:15:18.590Z,90.2
2017-10-14T23:16:17.558Z,90.2
2017-10-14T23:17:17.037Z,90.2
2017-10-14T23:18:16.258Z,90.2
2017-10-14T23:19:15.360Z,90.4
2017-10-14T23:20:14.925Z,90.3
2017-10-14T23:22:13.277Z,90.4
2017-10-14T23:23:12.480Z,90.5
2017-10-14T23:25:10.695Z,90.6
2017-10-14T23:26:10.025Z,90.6
2017-10-14T23:27:09.372Z,90.7
2017-10-14T23:28:08.571Z,90.7
2017-10-14T23:29:08.046Z,90.6
2017-10-14T23:30:07.018Z,90.7
2017-10-14T23:31:06.481Z,90.6
2017-10-14T23:32:05.453Z,90.5
2017-10-14T23:32:36.236Z,90.5
2017-10-14T23:33:06.644Z,90.5
2017-10-14T23:33:37.290Z,90.5
2017-10-14T23:34:07.806Z,90.5
2017-10-14T23:34:38.342Z,90.5
2017-10-14T23:35:08.845Z,90.6
2017-10-14T23:37:01.534Z,90.7
2017-10-14T23:38:01.135Z,90.6
2017-10-14T23:41:57.621Z,90.5
2017-10-14T23:42:56.828Z,90.7
2017-10-14T23:43:56.160Z,90.6
2017-10-14T23:44:55.363Z,90.6
2017-10-14T23:45:54.952Z,90.6
2017-10-14T23:46:54.150Z,90.6
2017-10-14T23:47:53.250Z,90.6
2017-10-14T23:48:52.204Z,90.6
2017-10-14T23:49:51.533Z,90.8
2017-10-14T23:50:50.730Z,90.7
2017-10-14T23:51:50.084Z,90.8
2017-10-14T23:53:48.805Z,90.9
2017-10-14T23:54:47.919Z,90.7
2017-10-14T23:55:47.116Z,90.8
2017-10-14T23:56:46.579Z,90.7
2017-10-14T23:57:45.281Z,90.7
2017-10-14T23:58:44.620Z,90.7
2017-10-14T23:59:43.816Z,90.7
